Time;durP1;ratioP1;P1;durP2;ratioP2;P2;SDS_P1;SDS_P2;PMS_P1;PMS_P2;Temp;Humidity;BMP_temperature;BMP_pressure;BME280_temperature;BME280_humidity;BME280_pressure;Samples;Min_cycle;Max_cycle;Signal;HPM_P1;HPM_P2
2023/06/25 00:01:03;;;;;;;14.70;9.77;;;19.30;99.90;;;;;;5062807;28;20509;-72
2023/06/25 00:03:28;;;;;;;13.50;8.93;;;19.30;99.90;;;;;;5058827;28;20058;-72
2023/06/25 00:05:54;;;;;;;16.53;8.80;;;19.40;99.90;;;;;;5057870;28;20679;-72
2023/06/25 00:08:19;;;;;;;12.40;8.80;;;19.30;99.90;;;;;;5057344;28;20099;-72
2023/06/25 00:10:45;;;;;;;19.23;8.53;;;19.10;99.90;;;;;;5065003;28;20093;-71
2023/06/25 00:13:11;;;;;;;13.53;8.40;;;19.10;99.90;;;;;;5042666;28;20496;-72
2023/06/25 00:15:36;;;;;;;13.77;7.53;;;19.10;99.90;;;;;;5057699;28;20484;-72
2023/06/25 00:18:02;;;;;;;14.10;8.47;;;19.00;99.90;;;;;;5067723;28;20027;-71
2023/06/25 00:20:28;;;;;;;11.90;8.63;;;19.10;99.90;;;;;;5043211;28;20024;-72
2023/06/25 00:22:53;;;;;;;12.33;8.17;;;19.20;99.90;;;;;;5060315;28;20028;-72
2023/06/25 00:25:19;;;;;;;11.03;7.63;;;19.30;99.90;;;;;;5049848;28;20359;-72
2023/06/25 00:27:48;;;;;;;11.60;7.47;;;19.20;99.90;;;;;;5065570;28;20059;-72
2023/06/25 00:30:15;;;;;;;10.82;7.60;;;19.10;99.90;;;;;;5063084;28;20033;-72
2023/06/25 00:32:41;;;;;;;11.43;8.00;;;19.10;99.90;;;;;;5065349;28;20412;-72
2023/06/25 00:35:08;;;;;;;14.35;7.82;;;19.20;99.90;;;;;;5060136;28;20043;-72
2023/06/25 00:37:36;;;;;;;13.63;7.53;;;19.10;99.90;;;;;;5059979;28;20104;-72
2023/06/25 00:40:04;;;;;;;11.40;7.00;;;19.20;99.90;;;;;;5060666;28;20485;-71
2023/06/25 00:42:42;;;;;;;10.43;7.55;;;19.00;99.90;;;;;;5053522;28;20111;-72
2023/06/25 00:45:09;;;;;;;13.05;8.05;;;18.90;99.90;;;;;;5063470;28;20020;-73
2023/06/25 00:47:35;;;;;;;11.75;7.70;;;18.90;99.90;;;;;;5062713;28;20024;-71
2023/06/25 00:50:02;;;;;;;13.25;7.60;;;18.90;99.90;;;;;;5054891;28;20495;-72
2023/06/25 00:52:29;;;;;;;13.88;7.88;;;18.90;99.90;;;;;;5057248;28;20045;-72
2023/06/25 00:54:54;;;;;;;10.55;7.68;;;18.90;99.90;;;;;;5065301;28;20025;-72
2023/06/25 00:57:21;;;;;;;9.83;7.97;;;18.90;99.90;;;;;;5058752;28;20048;-72
2023/06/25 00:59:48;;;;;;;11.02;8.10;;;18.90;99.90;;;;;;5056670;28;20484;-72
2023/06/25 01:02:35;;;;;;;11.77;7.57;;;18.90;99.90;;;;;;5048819;28;20025;-72
2023/06/25 01:05:07;;;;;;;9.80;7.60;;;18.70;99.90;;;;;;5045561;28;20035;-72
2023/06/25 01:07:36;;;;;;;14.70;8.32;;;18.60;99.90;;;;;;5056707;28;20033;-72
2023/06/25 01:10:03;;;;;;;12.85;7.35;;;18.60;99.90;;;;;;5067487;28;20058;-72
2023/06/25 01:12:29;;;;;;;10.27;7.70;;;18.80;99.90;;;;;;5062694;28;20046;-72
2023/06/25 01:14:54;;;;;;;9.87;7.37;;;18.90;99.90;;;;;;5058903;28;20029;-72
2023/06/25 01:17:20;;;;;;;14.33;6.50;;;18.70;99.90;;;;;;5044105;28;20501;-72
2023/06/25 01:19:46;;;;;;;9.02;7.25;;;18.70;99.90;;;;;;5065326;28;20029;-71
2023/06/25 01:22:14;;;;;;;8.83;7.20;;;18.70;99.90;;;;;;5061311;28;20120;-71
2023/06/25 01:24:42;;;;;;;12.00;6.47;;;18.90;99.90;;;;;;5055311;28;20574;-72
2023/06/25 01:27:08;;;;;;;10.10;7.00;;;18.90;99.90;;;;;;5063971;28;20036;-72
2023/06/25 01:29:33;;;;;;;10.50;7.17;;;18.60;99.90;;;;;;5049245;28;20036;-72
2023/06/25 01:31:59;;;;;;;14.13;6.87;;;18.60;99.90;;;;;;5057734;28;20511;-73
2023/06/25 01:34:25;;;;;;;15.13;7.30;;;18.70;99.90;;;;;;5061246;28;20446;-72
2023/06/25 01:36:52;;;;;;;9.30;7.50;;;18.70;99.90;;;;;;5064901;28;20044;-72
2023/06/25 01:39:19;;;;;;;11.55;7.00;;;18.40;99.90;;;;;;5063263;28;20359;-72
2023/06/25 01:41:45;;;;;;;14.60;7.68;;;18.40;99.90;;;;;;5055485;28;20045;-72
2023/06/25 01:44:15;;;;;;;10.98;7.75;;;18.30;99.90;;;;;;5061672;28;20081;-72
2023/06/25 01:46:41;;;;;;;11.15;7.68;;;18.40;99.90;;;;;;5062685;28;20044;-72
2023/06/25 01:49:07;;;;;;;14.07;6.15;;;18.50;99.90;;;;;;5063779;28;20024;-71
2023/06/25 01:51:32;;;;;;;10.07;7.70;;;18.60;99.90;;;;;;5058603;28;20390;-72
2023/06/25 01:53:58;;;;;;;14.20;7.37;;;18.40;99.90;;;;;;5042583;28;20021;-72
2023/06/25 01:56:24;;;;;;;12.00;8.30;;;18.40;99.90;;;;;;5062744;28;20576;-72
2023/06/25 01:58:52;;;;;;;14.55;8.00;;;18.30;99.90;;;;;;5058996;28;20280;-72
2023/06/25 02:01:19;;;;;;;11.52;6.93;;;18.10;99.90;;;;;;5056248;28;20115;-71
2023/06/25 02:03:44;;;;;;;11.68;7.82;;;18.10;99.90;;;;;;5061710;28;20062;-72
2023/06/25 02:06:10;;;;;;;10.27;7.77;;;18.00;99.90;;;;;;5065209;28;20041;-72
2023/06/25 02:08:35;;;;;;;13.87;7.53;;;17.80;99.90;;;;;;5063884;28;20036;-72
2023/06/25 02:11:01;;;;;;;13.80;7.47;;;17.70;99.90;;;;;;5068963;28;20400;-71
2023/06/25 02:13:27;;;;;;;14.93;8.25;;;17.70;99.90;;;;;;5063755;28;20025;-73
2023/06/25 02:15:52;;;;;;;12.63;7.83;;;17.70;99.90;;;;;;5061088;28;20514;-73
2023/06/25 02:18:18;;;;;;;13.80;8.30;;;17.80;99.90;;;;;;5062307;28;20025;-72
2023/06/25 02:20:43;;;;;;;14.77;7.93;;;17.90;99.90;;;;;;5059813;28;20515;-72
2023/06/25 02:23:09;;;;;;;10.10;8.40;;;18.00;99.90;;;;;;5062592;28;20024;-72
2023/06/25 02:25:35;;;;;;;12.47;8.50;;;17.90;99.90;;;;;;5043012;28;20135;-72
2023/06/25 02:28:00;;;;;;;10.20;7.37;;;17.90;99.90;;;;;;5064020;28;20154;-71
2023/06/25 02:30:26;;;;;;;11.70;8.60;;;17.90;99.90;;;;;;5060759;28;20028;-71
2023/06/25 02:32:51;;;;;;;13.93;8.50;;;17.70;99.90;;;;;;5064859;28;20040;-71
2023/06/25 02:35:17;;;;;;;16.63;7.90;;;17.60;99.90;;;;;;5061490;28;20032;-71
2023/06/25 02:37:42;;;;;;;17.57;8.23;;;17.60;99.90;;;;;;5061361;28;20573;-71
2023/06/25 02:40:10;;;;;;;18.40;8.90;;;17.50;99.90;;;;;;5061432;28;20029;-71
2023/06/25 02:42:35;;;;;;;13.50;8.35;;;17.60;99.90;;;;;;5061063;28;20025;-71
2023/06/25 02:45:01;;;;;;;13.60;8.70;;;17.60;99.90;;;;;;5061943;28;20040;-71
2023/06/25 02:47:27;;;;;;;12.27;8.60;;;17.50;99.90;;;;;;5042657;28;20059;-71
2023/06/25 02:49:53;;;;;;;18.30;8.77;;;17.40;99.90;;;;;;5059712;28;20033;-71
2023/06/25 02:52:18;;;;;;;13.70;8.43;;;17.30;99.90;;;;;;5062360;28;20499;-71
2023/06/25 02:54:44;;;;;;;17.43;8.63;;;17.30;99.90;;;;;;5058731;28;20028;-71
2023/06/25 02:57:09;;;;;;;14.67;9.77;;;17.30;99.90;;;;;;5063537;28;20029;-71
2023/06/25 02:59:35;;;;;;;10.73;8.00;;;17.30;99.90;;;;;;5063351;28;20492;-71
2023/06/25 03:02:01;;;;;;;11.77;8.90;;;17.30;99.90;;;;;;5061778;28;20037;-71
2023/06/25 03:04:26;;;;;;;16.07;9.07;;;17.40;99.90;;;;;;5058132;28;20799;-72
2023/06/25 03:06:52;;;;;;;12.27;8.60;;;17.30;99.90;;;;;;5061770;28;20032;-71
2023/06/25 03:09:17;;;;;;;14.20;7.77;;;17.40;99.90;;;;;;5060978;28;20501;-71
2023/06/25 03:11:43;;;;;;;10.17;8.23;;;17.60;99.90;;;;;;5061544;28;20051;-71
2023/06/25 03:14:08;;;;;;;13.63;8.07;;;17.80;99.90;;;;;;5061850;28;20119;-71
2023/06/25 03:16:34;;;;;;;10.63;7.20;;;17.80;99.90;;;;;;5060011;28;20040;-71
2023/06/25 03:19:00;;;;;;;11.43;7.33;;;17.50;99.90;;;;;;5061238;28;20036;-71
2023/06/25 03:21:26;;;;;;;9.63;7.90;;;17.30;99.90;;;;;;5058811;28;20044;-71
2023/06/25 03:23:51;;;;;;;10.03;7.27;;;17.20;99.90;;;;;;5061147;28;20048;-71
2023/06/25 03:26:17;;;;;;;8.90;7.73;;;17.10;99.90;;;;;;5061708;28;20161;-71
2023/06/25 03:28:43;;;;;;;9.97;7.80;;;17.10;99.90;;;;;;5059643;28;20045;-71
2023/06/25 03:31:08;;;;;;;14.70;9.57;;;17.10;99.90;;;;;;5060720;28;20029;-71
2023/06/25 03:33:34;;;;;;;12.97;8.37;;;17.10;99.90;;;;;;5058934;28;20378;-71
2023/06/25 03:36:00;;;;;;;9.57;7.50;;;17.00;99.90;;;;;;5062412;28;20080;-70
2023/06/25 03:38:25;;;;;;;11.57;7.93;;;17.10;99.90;;;;;;5049572;28;20661;-70
2023/06/25 03:40:51;;;;;;;12.20;8.13;;;17.10;99.90;;;;;;5060966;28;20036;-70
2023/06/25 03:43:16;;;;;;;12.60;8.73;;;17.10;99.90;;;;;;5058646;28;20499;-71
2023/06/25 03:45:42;;;;;;;12.00;8.47;;;17.00;99.90;;;;;;5062988;28;20033;-70
2023/06/25 03:48:07;;;;;;;13.43;8.30;;;16.90;99.90;;;;;;5061374;28;20029;-71
2023/06/25 03:50:33;;;;;;;16.00;9.43;;;16.90;99.90;;;;;;5063087;28;20181;-70
2023/06/25 03:53:00;;;;;;;11.43;9.07;;;16.90;99.90;;;;;;5047906;28;20037;-71
2023/06/25 03:55:26;;;;;;;10.90;8.07;;;16.90;99.90;;;;;;5060111;28;20492;-71
2023/06/25 03:57:55;;;;;;;11.33;9.17;;;16.90;99.90;;;;;;5061192;28;20121;-71
2023/06/25 04:00:20;;;;;;;14.98;8.70;;;16.90;99.90;;;;;;5050927;28;20033;-72
2023/06/25 04:02:46;;;;;;;11.80;8.77;;;16.90;99.90;;;;;;5059325;28;20039;-72
2023/06/25 04:05:12;;;;;;;12.57;7.60;;;16.90;99.90;;;;;;5061174;28;20096;-71
2023/06/25 04:07:37;;;;;;;12.07;7.70;;;16.90;99.90;;;;;;5058158;28;20059;-71
2023/06/25 04:10:03;;;;;;;12.50;7.83;;;16.90;99.90;;;;;;5061107;28;20021;-71
2023/06/25 04:12:28;;;;;;;17.05;8.32;;;17.00;99.90;;;;;;5061240;28;20044;-73
2023/06/25 04:14:54;;;;;;;16.77;8.70;;;17.00;99.90;;;;;;5062454;28;20040;-72
2023/06/25 04:17:20;;;;;;;13.63;7.93;;;17.10;99.90;;;;;;5056426;28;20529;-72
2023/06/25 04:19:45;;;;;;;14.03;7.83;;;16.90;99.90;;;;;;5044128;28;20120;-71
2023/06/25 04:22:11;;;;;;;9.30;7.37;;;16.90;99.90;;;;;;5056366;28;20033;-71
2023/06/25 04:24:37;;;;;;;10.00;8.20;;;17.10;99.90;;;;;;5057857;28;20040;-72
2023/06/25 04:27:03;;;;;;;13.23;8.37;;;17.00;99.90;;;;;;5058535;28;20131;-71
2023/06/25 04:29:29;;;;;;;;;;;17.00;99.90;;;;;;5060096;28;20037;-72
2023/06/25 04:31:54;;;;;;;13.35;7.65;;;17.00;99.90;;;;;;5058978;28;19989;-71
2023/06/25 04:34:20;;;;;;;18.20;8.70;;;17.00;99.90;;;;;;5059978;28;20107;-71
2023/06/25 04:36:45;;;;;;;11.13;8.23;;;17.00;99.90;;;;;;5056102;28;20032;-72
2023/06/25 04:39:11;;;;;;;10.90;7.60;;;17.00;99.90;;;;;;5038841;28;20028;-73
2023/06/25 04:41:37;;;;;;;13.30;8.20;;;16.90;99.90;;;;;;5062404;28;20070;-71
2023/06/25 04:44:02;;;;;;;9.40;7.47;;;17.10;99.90;;;;;;5062198;28;20790;-71
2023/06/25 04:46:28;;;;;;;14.88;8.23;;;17.20;99.90;;;;;;5057652;28;20025;-72
2023/06/25 04:48:53;;;;;;;14.57;8.43;;;17.20;99.90;;;;;;5058039;28;20032;-71
2023/06/25 04:51:19;;;;;;;13.07;8.03;;;17.30;99.90;;;;;;5061490;28;20044;-72
2023/06/25 04:53:45;;;;;;;17.17;8.13;;;17.30;99.90;;;;;;5053606;28;20083;-73
2023/06/25 04:56:10;;;;;;;10.83;8.00;;;17.40;99.90;;;;;;5053163;28;20036;-73
2023/06/25 04:58:37;;;;;;;11.90;8.23;;;17.60;99.90;;;;;;5058449;28;20029;-72
2023/06/25 05:01:03;;;;;;;;;;;17.60;99.90;;;;;;5061421;28;20045;-69
2023/06/25 05:03:29;;;;;;;11.57;7.82;;;17.70;99.90;;;;;;5056798;28;19908;-72
2023/06/25 05:05:54;;;;;;;12.10;8.07;;;17.70;99.90;;;;;;5041135;28;20119;-72
2023/06/25 05:08:20;;;;;;;10.73;7.93;;;17.60;99.90;;;;;;5056906;28;20125;-72
2023/06/25 05:10:46;;;;;;;11.50;8.10;;;17.60;99.90;;;;;;5056800;28;20040;-72
2023/06/25 05:13:11;;;;;;;17.33;9.00;;;17.60;99.90;;;;;;5060133;28;20048;-72
2023/06/25 05:15:41;;;;;;;9.47;7.70;;;17.50;99.90;;;;;;5060777;28;20730;-72
2023/06/25 05:18:10;;;;;;;9.85;7.38;;;17.90;99.90;;;;;;5059436;28;20025;-72
2023/06/25 05:20:36;;;;;;;12.35;7.65;;;18.00;99.90;;;;;;5060832;28;20492;-72
2023/06/25 05:23:03;;;;;;;13.75;6.75;;;18.30;99.90;;;;;;5056029;28;20101;-72
2023/06/25 05:25:29;;;;;;;10.50;7.15;;;18.60;99.90;;;;;;5059860;28;20033;-79
2023/06/25 05:27:55;;;;;;;8.52;6.88;;;18.70;99.90;;;;;;5057040;28;20052;-74
2023/06/25 05:30:20;;;;;;;9.70;7.27;;;18.90;99.90;;;;;;5056396;28;20480;-77
2023/06/25 05:32:46;;;;;;;16.97;8.03;;;19.40;99.90;;;;;;5057886;28;20037;-76
2023/06/25 05:35:11;;;;;;;12.47;7.40;;;19.70;99.90;;;;;;5068406;28;20573;-75
2023/06/25 05:37:37;;;;;;;9.67;6.60;;;20.10;99.90;;;;;;5058571;28;20036;-72
2023/06/25 05:40:03;;;;;;;11.40;6.60;;;20.30;99.90;;;;;;5054411;28;20151;-74
2023/06/25 05:42:29;;;;;;;11.80;7.63;;;20.80;99.90;;;;;;5063134;28;20032;-73
2023/06/25 05:44:54;;;;;;;7.75;6.30;;;21.40;99.90;;;;;;5059111;28;20028;-71
2023/06/25 05:47:20;;;;;;;8.53;6.37;;;21.70;99.70;;;;;;5065540;28;20039;-73
2023/06/25 05:49:46;;;;;;;11.37;6.27;;;22.90;98.00;;;;;;5057325;28;20043;-73
2023/06/25 05:52:11;;;;;;;8.02;5.93;;;23.60;95.10;;;;;;5056099;28;20143;-73
2023/06/25 05:54:37;;;;;;;7.83;5.77;;;24.70;90.60;;;;;;5062596;28;20036;-75
2023/06/25 05:57:03;;;;;;;10.77;6.00;;;24.70;90.90;;;;;;5059556;28;20110;-77
2023/06/25 05:59:29;;;;;;;10.05;6.38;;;24.40;90.20;;;;;;5062736;28;20274;-71
2023/06/25 06:01:54;;;;;;;8.03;6.03;;;24.40;88.40;;;;;;5064357;28;20436;-73
2023/06/25 06:04:20;;;;;;;9.83;5.70;;;25.70;88.10;;;;;;5062080;28;20242;-70
2023/06/25 06:06:45;;;;;;;6.03;5.43;;;26.80;79.60;;;;;;5061766;28;20810;-72
2023/06/25 06:09:11;;;;;;;9.97;5.40;;;26.80;78.00;;;;;;5063192;28;20029;-71
2023/06/25 06:11:37;;;;;;;11.18;5.90;;;27.50;80.10;;;;;;5048093;28;20294;-73
2023/06/25 06:14:02;;;;;;;7.75;5.75;;;29.00;75.70;;;;;;5065806;28;20095;-71
2023/06/25 06:16:28;;;;;;;9.55;5.90;;;29.70;72.60;;;;;;5064591;28;20031;-73
2023/06/25 06:18:54;;;;;;;6.20;5.10;;;30.10;70.10;;;;;;5058558;28;20036;-74
2023/06/25 06:21:19;;;;;;;6.60;5.70;;;30.30;70.00;;;;;;5047975;28;20028;-73
2023/06/25 06:23:45;;;;;;;7.80;5.47;;;30.40;67.00;;;;;;5057651;28;20498;-73
2023/06/25 06:26:10;;;;;;;7.20;5.03;;;30.90;66.40;;;;;;5064818;28;20071;-74
2023/06/25 06:28:36;;;;;;;8.90;4.75;;;31.00;64.00;;;;;;5063118;28;20454;-74
2023/06/25 06:31:02;;;;;;;6.65;4.72;;;31.50;66.10;;;;;;5060739;28;20109;-74
2023/06/25 06:33:27;;;;;;;;;;;32.20;64.80;;;;;;5062990;28;20539;-74
2023/06/25 06:35:53;;;;;;;6.85;4.85;;;32.80;63.40;;;;;;5057137;28;19912;-70
2023/06/25 06:38:19;;;;;;;;;;;33.30;62.10;;;;;;5061848;28;20021;-73
2023/06/25 06:40:44;;;;;;;7.05;5.85;;;33.90;60.70;;;;;;5058021;28;20372;-73
2023/06/25 06:43:10;;;;;;;;;;;33.00;60.20;;;;;;5060713;28;20021;-72
2023/06/25 06:45:36;;;;;;;8.70;5.75;;;32.30;62.50;;;;;;5061050;28;19912;-74
2023/06/25 06:48:01;;;;;;;;;;;31.40;64.40;;;;;;5059496;28;20029;-75
2023/06/25 06:50:27;;;;;;;6.35;5.18;;;29.90;66.10;;;;;;5063827;28;19912;-72
2023/06/25 06:52:52;;;;;;;;;;;29.80;68.70;;;;;;5063034;28;20496;-79
2023/06/25 06:55:18;;;;;;;8.45;5.45;;;30.30;67.00;;;;;;5062102;28;20327;-77
2023/06/25 06:57:44;;;;;;;;;;;32.70;63.80;;;;;;5062905;28;20032;-74
2023/06/25 07:00:10;;;;;;;6.38;5.45;;;34.20;60.00;;;;;;5064391;28;19915;-77
2023/06/25 07:02:36;;;;;;;8.13;5.90;;;35.30;59.10;;;;;;5064441;28;20031;-76
2023/06/25 07:05:02;;;;;;;;;;;34.40;57.30;;;;;;5059325;28;20164;-76
2023/06/25 07:07:28;;;;;;;9.43;5.43;;;33.50;59.40;;;;;;5065357;28;20380;-77
2023/06/25 07:09:53;;;;;;;10.23;4.88;;;30.70;62.30;;;;;;5056743;28;20043;-79
2023/06/25 07:12:19;;;;;;;;;;;29.50;68.00;;;;;;5062640;28;20048;-78
2023/06/25 07:14:45;;;;;;;10.30;5.82;;;30.20;66.80;;;;;;5057275;28;19995;-74
2023/06/25 07:17:10;;;;;;;;;;;29.50;67.50;;;;;;5061012;28;20148;-75
2023/06/25 07:19:36;;;;;;;9.85;5.70;;;28.60;70.30;;;;;;5061257;28;19912;-80
2023/06/25 07:22:02;;;;;;;23.60;9.57;;;28.10;70.70;;;;;;5064088;28;20611;-72
2023/06/25 07:24:28;;;;;;;;;;;27.90;72.90;;;;;;5058789;28;20029;-66
2023/06/25 07:26:53;;;;;;;7.68;5.75;;;27.60;76.00;;;;;;5053703;28;19917;-64
2023/06/25 07:29:19;;;;;;;7.55;5.38;;;26.80;73.00;;;;;;5063520;28;20408;-66
2023/06/25 07:31:44;;;;;;;14.10;6.82;;;26.60;76.10;;;;;;5064113;28;20072;-65
2023/06/25 07:34:10;;;;;;;7.97;5.05;;;27.00;77.30;;;;;;5063066;28;20039;-67
2023/06/25 07:36:36;;;;;;;21.17;6.90;;;27.10;74.50;;;;;;5061706;28;20127;-66
2023/06/25 07:39:03;;;;;;;10.68;5.40;;;26.70;76.10;;;;;;5063043;28;20397;-65
2023/06/25 07:41:29;;;;;;;12.65;5.88;;;26.70;77.30;;;;;;5059573;28;20083;-71
2023/06/25 07:43:55;;;;;;;8.93;6.07;;;26.40;77.70;;;;;;5061657;28;20431;-72
2023/06/25 07:46:22;;;;;;;6.60;5.45;;;26.40;80.90;;;;;;5061151;28;20067;-74
2023/06/25 07:48:48;;;;;;;17.00;6.40;;;26.50;77.40;;;;;;5056270;28;20089;-64
2023/06/25 07:51:14;;;;;;;6.35;5.03;;;26.30;77.30;;;;;;5062011;28;20040;-65
2023/06/25 07:53:39;;;;;;;12.85;5.90;;;26.30;76.20;;;;;;5056488;28;20041;-65
2023/06/25 07:56:05;;;;;;;7.00;5.35;;;26.00;78.40;;;;;;5045605;28;20422;-64
2023/06/25 07:58:31;;;;;;;10.00;5.63;;;25.90;77.80;;;;;;5060480;28;20142;-64
2023/06/25 08:00:56;;;;;;;9.80;5.68;;;25.90;76.30;;;;;;5060709;28;20275;-63
2023/06/25 08:03:22;;;;;;;8.52;6.18;;;25.80;79.40;;;;;;5057707;28;20416;-64
2023/06/25 08:05:48;;;;;;;5.78;4.88;;;25.80;77.20;;;;;;5058513;28;20033;-65
2023/06/25 08:08:13;;;;;;;8.52;5.68;;;25.90;77.90;;;;;;5054315;28;20116;-64
2023/06/25 08:10:39;;;;;;;7.47;5.72;;;25.90;78.80;;;;;;5056607;28;20477;-64
2023/06/25 08:13:05;;;;;;;8.60;5.28;;;26.00;81.20;;;;;;5064397;28;20085;-64
2023/06/25 08:15:30;;;;;;;7.38;5.35;;;26.40;78.60;;;;;;5057621;28;20032;-64
2023/06/25 08:17:56;;;;;;;8.13;5.95;;;26.90;78.90;;;;;;5061797;28;20071;-63
2023/06/25 08:20:22;;;;;;;7.90;6.07;;;27.40;74.50;;;;;;5060373;28;20348;-64
2023/06/25 08:22:47;;;;;;;9.95;5.68;;;27.60;72.20;;;;;;5064145;28;20033;-64
2023/06/25 08:25:24;;;;;;;7.07;6.18;;;28.10;72.70;;;;;;5062546;28;20036;-64
2023/06/25 08:27:51;;;;;;;6.90;5.78;;;29.00;73.30;;;;;;5055750;28;20040;-64
2023/06/25 08:30:17;;;;;;;6.65;5.57;;;30.50;71.00;;;;;;5059684;28;20040;-64
2023/06/25 08:32:43;;;;;;;6.60;5.95;;;30.80;69.50;;;;;;5052691;28;20037;-64
2023/06/25 08:35:09;;;;;;;8.55;5.60;;;30.90;67.30;;;;;;5054881;28;20041;-64
2023/06/25 08:37:35;;;;;;;6.70;5.03;;;28.50;71.90;;;;;;5056920;28;20460;-64
2023/06/25 08:40:01;;;;;;;15.65;6.00;;;28.20;71.50;;;;;;5061077;28;20162;-64
2023/06/25 08:42:27;;;;;;;8.48;5.80;;;28.90;73.40;;;;;;5056743;28;20041;-63
2023/06/25 08:44:53;;;;;;;6.65;5.95;;;31.20;67.50;;;;;;5058754;28;20528;-64
2023/06/25 08:47:19;;;;;;;8.90;5.53;;;31.30;65.10;;;;;;5063208;28;20024;-65
2023/06/25 08:49:49;;;;;;;11.85;5.10;;;30.20;68.90;;;;;;5056314;28;20519;-64
2023/06/25 08:52:18;;;;;;;6.28;5.07;;;29.40;72.90;;;;;;5043064;28;20048;-64
2023/06/25 08:54:48;;;;;;;6.85;5.57;;;28.60;71.30;;;;;;5058085;28;20028;-65
2023/06/25 08:57:14;;;;;;;8.32;5.65;;;29.70;72.90;;;;;;5057407;28;20032;-63
2023/06/25 08:59:40;;;;;;;12.82;6.35;;;32.90;65.80;;;;;;5062857;28;20027;-64
2023/06/25 09:02:06;;;;;;;9.95;5.43;;;36.10;59.50;;;;;;5062190;28;20060;-64
2023/06/25 09:04:31;;;;;;;8.30;5.88;;;36.60;55.00;;;;;;5061593;28;20047;-64
2023/06/25 09:07:04;;;;;;;;;;;38.70;54.20;;;;;;5058653;28;20742;-64
2023/06/25 09:09:30;;;;;;;9.02;5.45;;;40.80;51.30;;;;;;5059782;28;19912;-65
2023/06/25 09:11:55;;;;;;;;;;;41.80;49.50;;;;;;5062174;28;20040;-65
2023/06/25 09:14:21;;;;;;;6.97;5.75;;;43.10;48.70;;;;;;5060198;28;20399;-65
2023/06/25 09:16:48;;;;;;;7.60;5.90;;;42.50;46.70;;;;;;5066447;28;20025;-65
2023/06/25 09:19:20;;;;;;;8.60;5.38;;;43.90;46.90;;;;;;5062907;28;20033;-66
2023/06/25 09:21:46;;;;;;;7.43;5.15;;;45.10;45.80;;;;;;5059449;28;20040;-65
2023/06/25 09:24:20;;;;;;;5.32;4.82;;;43.80;45.60;;;;;;5057060;28;20181;-63
2023/06/25 09:26:51;;;;;;;8.10;5.70;;;43.50;47.20;;;;;;5058310;28;20578;-62
2023/06/25 09:29:18;;;;;;;8.32;5.40;;;44.50;46.50;;;;;;5063937;28;20016;-63
2023/06/25 09:31:45;;;;;;;6.40;5.18;;;45.10;44.00;;;;;;5064627;28;20634;-65
2023/06/25 09:34:14;;;;;;;5.97;5.22;;;45.20;47.00;;;;;;5061297;28;20024;-65
2023/06/25 09:36:39;;;;;;;6.40;5.60;;;46.10;45.00;;;;;;5062184;28;20404;-64
2023/06/25 09:39:07;;;;;;;5.47;4.97;;;46.70;44.50;;;;;;5065649;28;20033;-64
2023/06/25 09:41:34;;;;;;;8.00;6.03;;;46.60;43.70;;;;;;5063803;28;20029;-65
2023/06/25 09:44:04;;;;;;;7.80;6.30;;;46.80;43.80;;;;;;5064176;28;20028;-66
2023/06/25 09:46:33;;;;;;;6.00;5.38;;;46.20;43.10;;;;;;5058764;28;20029;-65
2023/06/25 09:49:01;;;;;;;5.07;4.65;;;46.20;43.80;;;;;;5061586;28;20591;-63
2023/06/25 09:51:40;;;;;;;7.45;5.68;;;45.90;42.90;;;;;;5061911;28;20044;-63
2023/06/25 09:54:08;;;;;;;6.20;5.60;;;46.60;43.10;;;;;;5055947;28;20488;-66
2023/06/25 09:56:36;;;;;;;6.38;5.63;;;46.80;43.30;;;;;;5059118;28;20056;-63
2023/06/25 09:59:02;;;;;;;6.00;5.38;;;47.20;43.80;;;;;;5062489;28;20028;-65
2023/06/25 10:01:28;;;;;;;6.88;5.80;;;48.00;42.90;;;;;;5064454;28;20127;-66
2023/06/25 10:03:53;;;;;;;9.77;5.95;;;48.40;44.20;;;;;;5060268;28;20127;-64
2023/06/25 10:06:19;;;;;;;6.32;4.75;;;48.30;43.10;;;;;;5059195;28;20103;-65
2023/06/25 10:08:45;;;;;;;7.68;5.82;;;48.10;42.60;;;;;;5063491;28;20051;-65
2023/06/25 10:11:14;;;;;;;6.28;5.68;;;48.60;43.80;;;;;;5059109;28;20466;-65
2023/06/25 10:13:44;;;;;;;7.85;5.18;;;48.40;41.80;;;;;;5067246;28;20029;-65
2023/06/25 10:16:15;;;;;;;6.35;5.70;;;48.50;41.50;;;;;;5057444;28;20067;-65
2023/06/25 10:18:45;;;;;;;6.15;5.53;;;47.00;41.70;;;;;;5058324;28;20083;-65
2023/06/25 10:21:19;;;;;;;9.45;5.07;;;46.50;43.40;;;;;;5062578;28;20496;-64
2023/06/25 10:23:56;;;;;;;5.13;4.72;;;44.20;43.20;;;;;;5046842;28;20389;-63
2023/06/25 10:26:29;;;;;;;6.68;5.70;;;40.60;47.20;;;;;;5057401;28;20388;-64
2023/06/25 10:28:58;;;;;;;5.68;5.18;;;37.90;50.90;;;;;;5061477;28;20040;-63
2023/06/25 10:31:25;;;;;;;7.50;4.82;;;36.40;53.60;;;;;;5058176;28;20025;-64
2023/06/25 10:34:01;;;;;;;5.80;5.30;;;33.40;56.20;;;;;;5060439;28;20079;-64
2023/06/25 10:36:26;;;;;;;9.30;5.75;;;33.60;58.00;;;;;;5064682;28;20021;-64
2023/06/25 10:38:52;;;;;;;6.15;5.55;;;33.90;58.40;;;;;;5063831;28;20383;-65
2023/06/25 10:41:26;;;;;;;6.40;5.78;;;34.00;59.70;;;;;;5064304;28;20528;-65
2023/06/25 10:43:51;;;;;;;8.48;5.60;;;33.50;59.40;;;;;;5055743;28;20186;-65
2023/06/25 10:46:17;;;;;;;7.35;5.80;;;33.40;57.70;;;;;;5058764;28;20067;-62
2023/06/25 10:48:45;;;;;;;5.85;5.35;;;33.10;58.50;;;;;;5062714;28;20118;-64
2023/06/25 10:51:12;;;;;;;6.40;5.75;;;33.30;59.90;;;;;;5064621;28;20064;-66
2023/06/25 10:53:37;;;;;;;8.85;6.20;;;33.00;59.90;;;;;;5064249;28;20040;-65
2023/06/25 10:56:03;;;;;;;;;;;33.00;59.40;;;;;;5061002;28;20564;-65
2023/06/25 10:58:28;;;;;;;6.18;5.57;;;33.10;60.40;;;;;;5065631;28;19919;-63
2023/06/25 11:00:55;;;;;;;;;;;33.10;62.10;;;;;;5062951;28;20064;-62
2023/06/25 11:03:21;;;;;;;7.00;5.93;;;33.10;59.50;;;;;;5064244;28;19916;-65
2023/06/25 11:05:47;;;;;;;10.02;5.50;;;32.70;62.00;;;;;;5063532;28;20400;-63
2023/06/25 11:08:13;;;;;;;;;;;32.90;62.60;;;;;;5063846;28;20037;-66
2023/06/25 11:10:40;;;;;;;7.05;5.97;;;33.00;62.50;;;;;;5060001;28;19920;-65
2023/06/25 11:13:09;;;;;;;6.32;5.72;;;32.80;62.30;;;;;;5066224;28;20048;-65
2023/06/25 11:15:35;;;;;;;7.97;6.70;;;33.00;63.70;;;;;;5064093;28;20363;-65
2023/06/25 11:18:03;;;;;;;;;;;33.00;62.10;;;;;;5064236;28;20124;-65
2023/06/25 11:20:29;;;;;;;6.38;5.75;;;33.00;62.10;;;;;;5058773;28;20458;-65
2023/06/25 11:22:55;;;;;;;;;;;32.90;62.50;;;;;;5063414;28;20065;-65
2023/06/25 11:25:21;;;;;;;7.47;6.43;;;32.70;59.10;;;;;;5060978;28;19917;-64
2023/06/25 11:27:48;;;;;;;;;;;32.60;60.40;;;;;;5059070;28;20298;-65
2023/06/25 11:30:14;;;;;;;10.57;6.85;;;32.70;61.90;;;;;;5065917;28;19962;-63
2023/06/25 11:32:40;;;;;;;5.78;5.18;;;32.70;60.80;;;;;;5060901;28;20037;-63
2023/06/25 11:35:10;;;;;;;;;;;32.60;59.90;;;;;;5061409;28;20027;-63
2023/06/25 11:37:46;;;;;;;7.80;5.90;;;32.70;62.00;;;;;;5060160;28;19915;-64
2023/06/25 11:40:26;;;;;;;8.00;6.38;;;32.50;60.00;;;;;;5059165;28;20090;-64
2023/06/25 11:42:52;;;;;;;7.00;5.68;;;32.60;60.20;;;;;;5059935;28;20032;-63
2023/06/25 11:45:19;;;;;;;6.70;6.00;;;32.60;61.60;;;;;;5060781;28;20068;-65
2023/06/25 11:47:53;;;;;;;7.93;5.60;;;32.50;60.30;;;;;;5057053;28;20036;-65
2023/06/25 11:50:26;;;;;;;7.25;6.00;;;32.70;61.30;;;;;;5059385;28;20025;-65
2023/06/25 11:52:53;;;;;;;6.13;5.47;;;32.60;61.50;;;;;;5061606;28;20059;-63
2023/06/25 11:55:20;;;;;;;7.85;5.78;;;32.40;57.40;;;;;;5058621;28;20024;-65
2023/06/25 11:57:46;;;;;;;8.30;6.32;;;32.20;59.10;;;;;;5058413;28;20419;-63
2023/06/25 12:00:12;;;;;;;7.47;6.60;;;32.50;61.80;;;;;;5058305;28;20083;-63
2023/06/25 12:02:38;;;;;;;;;;;32.50;61.20;;;;;;5060201;28;20115;-62
2023/06/25 12:05:04;;;;;;;8.50;5.93;;;32.50;59.20;;;;;;5058361;28;20003;-63
2023/06/25 12:07:29;;;;;;;;;;;32.50;60.80;;;;;;5060479;28;20059;-63
2023/06/25 12:09:55;;;;;;;7.07;6.03;;;32.30;60.60;;;;;;5057997;28;19912;-63
2023/06/25 12:12:20;;;;;;;7.63;6.68;;;32.40;61.40;;;;;;5060764;28;20040;-65
2023/06/25 12:14:47;;;;;;;;;;;32.50;60.80;;;;;;5060455;28;20183;-65
2023/06/25 12:17:13;;;;;;;7.20;5.47;;;32.50;59.80;;;;;;5058705;28;20011;-65
2023/06/25 12:19:39;;;;;;;8.70;5.80;;;32.40;59.20;;;;;;5061320;28;20124;-64
2023/06/25 12:22:05;;;;;;;7.35;6.65;;;32.30;59.80;;;;;;5058775;28;20551;-63
2023/06/25 12:24:30;;;;;;;11.18;6.75;;;32.30;58.50;;;;;;5061800;28;20032;-63
2023/06/25 12:26:56;;;;;;;6.68;5.63;;;32.30;60.10;;;;;;5058037;28;20190;-63
2023/06/25 12:29:22;;;;;;;7.60;5.97;;;32.30;62.00;;;;;;5059807;28;20086;-62
2023/06/25 12:31:47;;;;;;;6.35;5.72;;;32.40;62.60;;;;;;5057184;28;20048;-63
2023/06/25 12:34:13;;;;;;;6.43;5.82;;;32.30;58.70;;;;;;5057250;28;20527;-63
2023/06/25 12:36:38;;;;;;;8.57;6.28;;;32.40;61.00;;;;;;5060131;28;20094;-64
2023/06/25 12:39:05;;;;;;;9.52;6.55;;;32.40;62.30;;;;;;5060022;28;20424;-63
2023/06/25 12:41:30;;;;;;;7.57;6.65;;;32.40;61.60;;;;;;5059856;28;20534;-63
2023/06/25 12:43:56;;;;;;;9.10;5.80;;;32.30;62.60;;;;;;5058470;28;20060;-63